Findhorn, United Kingdom
Current Conditions -  °F | °C
As of 7:50 PM on Tuesday 25 Nov 2014 (Local Time) from EGQK Reporting Station
Few Clouds Few Clouds  
Wind Chill: 30°   Ceiling: Unl
Heat Index: 30°   Visibility: 6mi
Dew Point: 30°   Wind: 2mph
Humidity: 100%   Direction: 180°S
Pressure: 30.15"   Gusts: NA
Location:  57.66°N, 3.61°W
Report Text: EGQK 251950Z AUTO 18002KT 9999 FEW080/// M01/M01 Q1021
Loading
Personal Weather Stations






























Interactive Weather Map New forecast layout! Learn more

10-Day Weather Forecast

Advertisements
Track Severe Weather on mobile